sensor_id;sensor_type;location;lat;lon;timestamp;temperature;humidity
26947;DHT22;14501;52.282;10.560;2022-08-19T00:00:23;20.10;99.90
26947;DHT22;14501;52.282;10.560;2022-08-19T00:02:50;20.10;99.90
26947;DHT22;14501;52.282;10.560;2022-08-19T00:05:17;20.10;99.90
26947;DHT22;14501;52.282;10.560;2022-08-19T00:07:44;20.10;99.90
26947;DHT22;14501;52.282;10.560;2022-08-19T00:10:12;20.10;99.90
26947;DHT22;14501;52.282;10.560;2022-08-19T00:12:38;20.10;99.90
26947;DHT22;14501;52.282;10.560;2022-08-19T00:15:05;20.10;99.90
26947;DHT22;14501;52.282;10.560;2022-08-19T00:17:31;20.10;99.90
26947;DHT22;14501;52.282;10.560;2022-08-19T00:19:57;20.10;99.90
26947;DHT22;14501;52.282;10.560;2022-08-19T00:22:23;20.00;99.90
26947;DHT22;14501;52.282;10.560;2022-08-19T00:24:49;20.00;99.90
26947;DHT22;14501;52.282;10.560;2022-08-19T00:27:14;20.00;99.90
26947;DHT22;14501;52.282;10.560;2022-08-19T00:29:40;20.00;99.90
26947;DHT22;14501;52.282;10.560;2022-08-19T00:32:06;20.00;99.90
26947;DHT22;14501;52.282;10.560;2022-08-19T00:34:32;20.00;99.90
26947;DHT22;14501;52.282;10.560;2022-08-19T00:36:58;20.00;99.90
26947;DHT22;14501;52.282;10.560;2022-08-19T00:39:24;20.00;99.90
26947;DHT22;14501;52.282;10.560;2022-08-19T00:41:50;20.00;99.90
26947;DHT22;14501;52.282;10.560;2022-08-19T00:44:25;20.00;99.90
26947;DHT22;14501;52.282;10.560;2022-08-19T00:46:53;20.00;99.90
26947;DHT22;14501;52.282;10.560;2022-08-19T00:49:26;20.00;99.90
26947;DHT22;14501;52.282;10.560;2022-08-19T00:51:57;20.00;99.90
26947;DHT22;14501;52.282;10.560;2022-08-19T00:54:25;20.00;99.90
26947;DHT22;14501;52.282;10.560;2022-08-19T00:56:52;20.00;99.90
26947;DHT22;14501;52.282;10.560;2022-08-19T00:59:18;20.00;99.90
26947;DHT22;14501;52.282;10.560;2022-08-19T01:01:44;20.00;99.90
26947;DHT22;14501;52.282;10.560;2022-08-19T01:04:11;20.00;99.90
26947;DHT22;14501;52.282;10.560;2022-08-19T01:06:38;19.90;99.90
26947;DHT22;14501;52.282;10.560;2022-08-19T01:09:05;19.90;99.90
26947;DHT22;14501;52.282;10.560;2022-08-19T01:11:34;19.90;99.90
26947;DHT22;14501;52.282;10.560;2022-08-19T01:14:00;19.90;99.90
26947;DHT22;14501;52.282;10.560;2022-08-19T01:16:27;19.90;99.90
26947;DHT22;14501;52.282;10.560;2022-08-19T01:18:54;19.80;99.90
26947;DHT22;14501;52.282;10.560;2022-08-19T01:23:53;19.80;99.90
26947;DHT22;14501;52.282;10.560;2022-08-19T01:26:22;19.80;99.90
26947;DHT22;14501;52.282;10.560;2022-08-19T01:28:50;19.80;99.90
26947;DHT22;14501;52.282;10.560;2022-08-19T01:31:19;19.80;99.90
26947;DHT22;14501;52.282;10.560;2022-08-19T01:33:48;19.70;99.90
26947;DHT22;14501;52.282;10.560;2022-08-19T01:36:39;19.70;99.90
26947;DHT22;14501;52.282;10.560;2022-08-19T01:39:06;19.70;99.90
26947;DHT22;14501;52.282;10.560;2022-08-19T01:41:33;19.70;99.90
26947;DHT22;14501;52.282;10.560;2022-08-19T01:44:00;19.70;99.90
26947;DHT22;14501;52.282;10.560;2022-08-19T01:46:29;19.70;99.90
26947;DHT22;14501;52.282;10.560;2022-08-19T01:48:55;19.60;99.90
26947;DHT22;14501;52.282;10.560;2022-08-19T01:51:21;19.60;99.90
26947;DHT22;14501;52.282;10.560;2022-08-19T01:53:49;19.60;99.90
26947;DHT22;14501;52.282;10.560;2022-08-19T01:56:15;19.60;99.90
26947;DHT22;14501;52.282;10.560;2022-08-19T01:58:47;19.50;99.90
26947;DHT22;14501;52.282;10.560;2022-08-19T02:01:14;19.50;99.90
26947;DHT22;14501;52.282;10.560;2022-08-19T02:03:40;19.50;99.90
26947;DHT22;14501;52.282;10.560;2022-08-19T02:06:06;19.50;99.90
26947;DHT22;14501;52.282;10.560;2022-08-19T02:08:35;19.40;99.90
26947;DHT22;14501;52.282;10.560;2022-08-19T02:11:01;19.40;99.90
26947;DHT22;14501;52.282;10.560;2022-08-19T02:13:27;19.40;99.90
26947;DHT22;14501;52.282;10.560;2022-08-19T02:15:53;19.40;99.90
26947;DHT22;14501;52.282;10.560;2022-08-19T02:18:19;19.40;99.90
26947;DHT22;14501;52.282;10.560;2022-08-19T02:20:45;19.40;99.90
26947;DHT22;14501;52.282;10.560;2022-08-19T02:23:14;19.50;99.90
26947;DHT22;14501;52.282;10.560;2022-08-19T02:25:41;19.40;99.90
26947;DHT22;14501;52.282;10.560;2022-08-19T02:28:07;19.40;99.90
26947;DHT22;14501;52.282;10.560;2022-08-19T02:30:33;19.40;99.90
26947;DHT22;14501;52.282;10.560;2022-08-19T02:32:58;19.40;99.90
26947;DHT22;14501;52.282;10.560;2022-08-19T02:35:25;19.40;99.90
26947;DHT22;14501;52.282;10.560;2022-08-19T02:37:50;19.30;99.90
26947;DHT22;14501;52.282;10.560;2022-08-19T02:40:35;19.30;99.90
26947;DHT22;14501;52.282;10.560;2022-08-19T02:43:05;19.20;99.90
26947;DHT22;14501;52.282;10.560;2022-08-19T02:45:37;19.20;99.90
26947;DHT22;14501;52.282;10.560;2022-08-19T02:48:04;19.80;99.90
26947;DHT22;14501;52.282;10.560;2022-08-19T02:50:31;19.10;99.90
26947;DHT22;14501;52.282;10.560;2022-08-19T02:52:57;19.10;99.90
26947;DHT22;14501;52.282;10.560;2022-08-19T02:55:23;19.00;99.90
26947;DHT22;14501;52.282;10.560;2022-08-19T02:57:48;19.00;99.90
26947;DHT22;14501;52.282;10.560;2022-08-19T03:00:15;19.00;99.90
26947;DHT22;14501;52.282;10.560;2022-08-19T03:02:41;18.90;99.90
26947;DHT22;14501;52.282;10.560;2022-08-19T03:05:08;18.90;99.90
26947;DHT22;14501;52.282;10.560;2022-08-19T03:07:35;18.90;99.90
26947;DHT22;14501;52.282;10.560;2022-08-19T03:10:01;18.90;99.90
26947;DHT22;14501;52.282;10.560;2022-08-19T03:12:26;18.80;99.90
26947;DHT22;14501;52.282;10.560;2022-08-19T03:14:52;18.80;99.90
26947;DHT22;14501;52.282;10.560;2022-08-19T03:17:18;18.70;99.90
26947;DHT22;14501;52.282;10.560;2022-08-19T03:19:44;18.70;99.90
26947;DHT22;14501;52.282;10.560;2022-08-19T03:22:09;18.70;99.90
26947;DHT22;14501;52.282;10.560;2022-08-19T03:24:35;18.70;99.90
26947;DHT22;14501;52.282;10.560;2022-08-19T03:27:01;18.70;99.90
26947;DHT22;14501;52.282;10.560;2022-08-19T03:29:28;18.70;99.90
26947;DHT22;14501;52.282;10.560;2022-08-19T03:31:54;18.60;99.90
26947;DHT22;14501;52.282;10.560;2022-08-19T03:34:28;18.60;99.90
26947;DHT22;14501;52.282;10.560;2022-08-19T03:36:56;18.60;99.90
26947;DHT22;14501;52.282;10.560;2022-08-19T03:39:23;18.60;99.90
26947;DHT22;14501;52.282;10.560;2022-08-19T03:41:50;18.60;99.90
26947;DHT22;14501;52.282;10.560;2022-08-19T03:44:21;18.60;99.90
26947;DHT22;14501;52.282;10.560;2022-08-19T03:46:49;18.60;99.90
26947;DHT22;14501;52.282;10.560;2022-08-19T03:49:16;18.60;99.90
26947;DHT22;14501;52.282;10.560;2022-08-19T03:51:43;18.60;99.90
26947;DHT22;14501;52.282;10.560;2022-08-19T03:54:11;18.60;99.90
26947;DHT22;14501;52.282;10.560;2022-08-19T03:56:39;18.50;99.90
26947;DHT22;14501;52.282;10.560;2022-08-19T03:59:07;18.50;99.90
26947;DHT22;14501;52.282;10.560;2022-08-19T04:01:34;18.50;99.90
26947;DHT22;14501;52.282;10.560;2022-08-19T04:04:01;18.50;99.90
26947;DHT22;14501;52.282;10.560;2022-08-19T04:06:29;18.50;99.90
26947;DHT22;14501;52.282;10.560;2022-08-19T04:08:57;18.40;99.90
26947;DHT22;14501;52.282;10.560;2022-08-19T04:11:39;18.50;99.90
26947;DHT22;14501;52.282;10.560;2022-08-19T04:14:08;18.40;99.90
26947;DHT22;14501;52.282;10.560;2022-08-19T04:16:34;18.40;99.90
26947;DHT22;14501;52.282;10.560;2022-08-19T04:19:02;18.40;99.90
26947;DHT22;14501;52.282;10.560;2022-08-19T04:21:28;18.40;99.90
26947;DHT22;14501;52.282;10.560;2022-08-19T04:23:55;18.40;99.90
26947;DHT22;14501;52.282;10.560;2022-08-19T04:26:24;18.40;99.90
26947;DHT22;14501;52.282;10.560;2022-08-19T04:28:50;18.30;99.90
26947;DHT22;14501;52.282;10.560;2022-08-19T04:31:25;18.30;99.90
26947;DHT22;14501;52.282;10.560;2022-08-19T04:33:56;18.30;99.90
26947;DHT22;14501;52.282;10.560;2022-08-19T04:36:30;18.30;99.90
26947;DHT22;14501;52.282;10.560;2022-08-19T04:38:59;18.30;99.90
26947;DHT22;14501;52.282;10.560;2022-08-19T04:41:25;18.30;99.90
26947;DHT22;14501;52.282;10.560;2022-08-19T04:44:10;18.30;99.90
26947;DHT22;14501;52.282;10.560;2022-08-19T04:46:36;16.80;99.90
26947;DHT22;14501;52.282;10.560;2022-08-19T04:49:04;18.30;99.90
26947;DHT22;14501;52.282;10.560;2022-08-19T04:51:31;18.30;99.90
26947;DHT22;14501;52.282;10.560;2022-08-19T04:53:58;18.30;99.90
26947;DHT22;14501;52.282;10.560;2022-08-19T04:56:25;18.30;99.90
26947;DHT22;14501;52.282;10.560;2022-08-19T04:58:54;18.30;99.90
26947;DHT22;14501;52.282;10.560;2022-08-19T05:01:22;18.30;99.90
26947;DHT22;14501;52.282;10.560;2022-08-19T05:03:48;18.30;99.90
26947;DHT22;14501;52.282;10.560;2022-08-19T05:06:15;18.40;99.90
26947;DHT22;14501;52.282;10.560;2022-08-19T05:08:42;18.30;99.90
26947;DHT22;14501;52.282;10.560;2022-08-19T05:11:11;18.30;99.90
26947;DHT22;14501;52.282;10.560;2022-08-19T05:13:37;18.30;99.90
26947;DHT22;14501;52.282;10.560;2022-08-19T05:16:03;18.30;99.90
26947;DHT22;14501;52.282;10.560;2022-08-19T05:18:29;18.20;99.90
26947;DHT22;14501;52.282;10.560;2022-08-19T05:21:21;18.20;99.90
26947;DHT22;14501;52.282;10.560;2022-08-19T05:24:06;18.20;99.90
26947;DHT22;14501;52.282;10.560;2022-08-19T05:26:40;18.20;99.90
26947;DHT22;14501;52.282;10.560;2022-08-19T05:29:06;18.20;99.90
26947;DHT22;14501;52.282;10.560;2022-08-19T05:31:33;18.20;99.90
26947;DHT22;14501;52.282;10.560;2022-08-19T05:33:59;18.20;99.90
26947;DHT22;14501;52.282;10.560;2022-08-19T05:36:26;18.30;99.90
26947;DHT22;14501;52.282;10.560;2022-08-19T05:38:52;18.30;99.90
26947;DHT22;14501;52.282;10.560;2022-08-19T05:41:19;18.30;99.90
26947;DHT22;14501;52.282;10.560;2022-08-19T05:43:45;18.30;99.90
26947;DHT22;14501;52.282;10.560;2022-08-19T05:46:17;18.40;99.90
26947;DHT22;14501;52.282;10.560;2022-08-19T05:48:44;18.50;99.90
26947;DHT22;14501;52.282;10.560;2022-08-19T05:51:09;18.50;99.90
26947;DHT22;14501;52.282;10.560;2022-08-19T05:53:35;18.60;99.90
26947;DHT22;14501;52.282;10.560;2022-08-19T05:56:09;18.60;99.90
26947;DHT22;14501;52.282;10.560;2022-08-19T05:58:36;18.70;99.90
26947;DHT22;14501;52.282;10.560;2022-08-19T06:01:03;18.70;99.90
26947;DHT22;14501;52.282;10.560;2022-08-19T06:03:32;18.70;99.90
26947;DHT22;14501;52.282;10.560;2022-08-19T06:05:58;18.80;99.90
26947;DHT22;14501;52.282;10.560;2022-08-19T06:08:28;18.80;99.90
26947;DHT22;14501;52.282;10.560;2022-08-19T06:10:54;18.80;99.90
26947;DHT22;14501;52.282;10.560;2022-08-19T06:13:21;18.80;99.90
26947;DHT22;14501;52.282;10.560;2022-08-19T06:15:47;18.80;99.90
26947;DHT22;14501;52.282;10.560;2022-08-19T06:18:14;18.80;99.90
26947;DHT22;14501;52.282;10.560;2022-08-19T06:20:41;18.80;99.90
26947;DHT22;14501;52.282;10.560;2022-08-19T06:23:07;18.80;99.90
26947;DHT22;14501;52.282;10.560;2022-08-19T06:25:32;18.80;99.90
26947;DHT22;14501;52.282;10.560;2022-08-19T06:27:58;18.90;99.90
26947;DHT22;14501;52.282;10.560;2022-08-19T06:30:24;18.90;99.90
26947;DHT22;14501;52.282;10.560;2022-08-19T06:32:49;18.90;99.90
26947;DHT22;14501;52.282;10.560;2022-08-19T06:35:15;18.90;99.90
26947;DHT22;14501;52.282;10.560;2022-08-19T06:37:41;18.80;99.90
26947;DHT22;14501;52.282;10.560;2022-08-19T06:40:08;18.80;99.90
26947;DHT22;14501;52.282;10.560;2022-08-19T06:42:36;18.70;99.90
26947;DHT22;14501;52.282;10.560;2022-08-19T06:45:04;18.70;99.90
26947;DHT22;14501;52.282;10.560;2022-08-19T06:47:30;18.70;99.90
26947;DHT22;14501;52.282;10.560;2022-08-19T06:49:59;18.60;99.90
26947;DHT22;14501;52.282;10.560;2022-08-19T06:52:30;18.70;99.90
26947;DHT22;14501;52.282;10.560;2022-08-19T06:54:55;18.70;99.90
26947;DHT22;14501;52.282;10.560;2022-08-19T06:57:23;18.80;99.90
26947;DHT22;14501;52.282;10.560;2022-08-19T06:59:49;18.70;99.90
26947;DHT22;14501;52.282;10.560;2022-08-19T07:02:15;18.80;99.90
26947;DHT22;14501;52.282;10.560;2022-08-19T07:04:40;18.80;99.90
26947;DHT22;14501;52.282;10.560;2022-08-19T07:07:09;18.70;99.90
26947;DHT22;14501;52.282;10.560;2022-08-19T07:09:41;18.60;99.90
26947;DHT22;14501;52.282;10.560;2022-08-19T07:12:09;18.60;99.90
26947;DHT22;14501;52.282;10.560;2022-08-19T07:14:35;18.70;99.90
26947;DHT22;14501;52.282;10.560;2022-08-19T07:17:04;18.70;99.90
26947;DHT22;14501;52.282;10.560;2022-08-19T07:19:30;18.70;99.90
26947;DHT22;14501;52.282;10.560;2022-08-19T07:21:57;18.80;99.90
26947;DHT22;14501;52.282;10.560;2022-08-19T07:24:25;18.80;99.90
26947;DHT22;14501;52.282;10.560;2022-08-19T07:26:54;18.70;99.90
26947;DHT22;14501;52.282;10.560;2022-08-19T07:29:21;18.70;99.90
26947;DHT22;14501;52.282;10.560;2022-08-19T07:31:51;18.70;99.90
26947;DHT22;14501;52.282;10.560;2022-08-19T07:34:17;18.80;99.90
26947;DHT22;14501;52.282;10.560;2022-08-19T07:36:43;18.90;99.90
26947;DHT22;14501;52.282;10.560;2022-08-19T07:39:13;18.80;99.90
26947;DHT22;14501;52.282;10.560;2022-08-19T07:41:39;18.90;99.90
26947;DHT22;14501;52.282;10.560;2022-08-19T07:44:06;18.90;99.90
26947;DHT22;14501;52.282;10.560;2022-08-19T07:46:35;18.90;99.90
26947;DHT22;14501;52.282;10.560;2022-08-19T07:49:01;18.90;99.90
26947;DHT22;14501;52.282;10.560;2022-08-19T07:51:28;18.90;99.90
26947;DHT22;14501;52.282;10.560;2022-08-19T07:53:54;19.00;99.90
26947;DHT22;14501;52.282;10.560;2022-08-19T07:56:20;19.10;99.90
26947;DHT22;14501;52.282;10.560;2022-08-19T07:58:48;19.10;99.90
26947;DHT22;14501;52.282;10.560;2022-08-19T08:01:24;19.10;99.90
26947;DHT22;14501;52.282;10.560;2022-08-19T08:03:52;19.10;99.90
26947;DHT22;14501;52.282;10.560;2022-08-19T08:06:37;19.10;99.90
26947;DHT22;14501;52.282;10.560;2022-08-19T08:09:26;19.20;99.90
26947;DHT22;14501;52.282;10.560;2022-08-19T08:11:54;19.30;99.90
26947;DHT22;14501;52.282;10.560;2022-08-19T08:14:23;19.30;99.90
26947;DHT22;14501;52.282;10.560;2022-08-19T08:16:50;19.50;99.90
26947;DHT22;14501;52.282;10.560;2022-08-19T08:19:19;19.60;99.90
26947;DHT22;14501;52.282;10.560;2022-08-19T08:21:46;19.70;99.90
26947;DHT22;14501;52.282;10.560;2022-08-19T08:24:12;19.80;99.90
26947;DHT22;14501;52.282;10.560;2022-08-19T08:26:39;19.90;99.90
26947;DHT22;14501;52.282;10.560;2022-08-19T08:29:05;19.90;99.90
26947;DHT22;14501;52.282;10.560;2022-08-19T08:31:32;20.10;99.90
26947;DHT22;14501;52.282;10.560;2022-08-19T08:33:59;20.20;99.90
26947;DHT22;14501;52.282;10.560;2022-08-19T08:36:25;20.30;99.90
26947;DHT22;14501;52.282;10.560;2022-08-19T08:38:51;20.40;99.90
26947;DHT22;14501;52.282;10.560;2022-08-19T08:43:56;20.50;99.90
26947;DHT22;14501;52.282;10.560;2022-08-19T08:47:03;20.60;99.90
26947;DHT22;14501;52.282;10.560;2022-08-19T08:49:53;20.60;99.90
26947;DHT22;14501;52.282;10.560;2022-08-19T08:52:32;20.70;99.90
26947;DHT22;14501;52.282;10.560;2022-08-19T08:55:09;20.60;99.90
26947;DHT22;14501;52.282;10.560;2022-08-19T08:57:45;20.60;99.90
26947;DHT22;14501;52.282;10.560;2022-08-19T09:00:23;20.70;99.90
26947;DHT22;14501;52.282;10.560;2022-08-19T09:02:50;20.90;99.90
26947;DHT22;14501;52.282;10.560;2022-08-19T09:05:16;20.90;99.90
26947;DHT22;14501;52.282;10.560;2022-08-19T09:08:16;21.10;99.90
26947;DHT22;14501;52.282;10.560;2022-08-19T09:10:44;21.20;99.90
26947;DHT22;14501;52.282;10.560;2022-08-19T09:15:56;21.70;99.90
26947;DHT22;14501;52.282;10.560;2022-08-19T09:18:23;21.70;99.90
26947;DHT22;14501;52.282;10.560;2022-08-19T09:20:49;21.90;99.90
26947;DHT22;14501;52.282;10.560;2022-08-19T09:23:15;21.70;99.90
26947;DHT22;14501;52.282;10.560;2022-08-19T09:25:41;21.80;99.90
26947;DHT22;14501;52.282;10.560;2022-08-19T09:28:07;21.70;99.90
26947;DHT22;14501;52.282;10.560;2022-08-19T09:30:42;21.50;99.90
26947;DHT22;14501;52.282;10.560;2022-08-19T09:33:08;21.80;99.90
26947;DHT22;14501;52.282;10.560;2022-08-19T09:35:33;21.70;99.90
26947;DHT22;14501;52.282;10.560;2022-08-19T09:38:00;21.70;99.90
26947;DHT22;14501;52.282;10.560;2022-08-19T09:40:27;21.70;99.90
26947;DHT22;14501;52.282;10.560;2022-08-19T09:42:54;21.60;99.90
26947;DHT22;14501;52.282;10.560;2022-08-19T09:45:21;21.60;99.90
26947;DHT22;14501;52.282;10.560;2022-08-19T09:47:48;21.50;99.90
26947;DHT22;14501;52.282;10.560;2022-08-19T09:50:14;21.60;99.90
26947;DHT22;14501;52.282;10.560;2022-08-19T09:52:40;21.70;99.90
26947;DHT22;14501;52.282;10.560;2022-08-19T09:55:09;21.70;99.90
26947;DHT22;14501;52.282;10.560;2022-08-19T09:57:35;21.90;99.90
26947;DHT22;14501;52.282;10.560;2022-08-19T10:00:02;21.90;99.90
26947;DHT22;14501;52.282;10.560;2022-08-19T10:02:28;21.80;99.90
26947;DHT22;14501;52.282;10.560;2022-08-19T10:04:54;21.90;99.90
26947;DHT22;14501;52.282;10.560;2022-08-19T10:07:38;21.90;99.90
26947;DHT22;14501;52.282;10.560;2022-08-19T10:10:05;21.90;99.90
26947;DHT22;14501;52.282;10.560;2022-08-19T10:12:32;21.90;99.90
26947;DHT22;14501;52.282;10.560;2022-08-19T10:14:59;22.00;99.90
26947;DHT22;14501;52.282;10.560;2022-08-19T10:17:25;22.10;99.90
26947;DHT22;14501;52.282;10.560;2022-08-19T10:19:52;22.10;99.90
26947;DHT22;14501;52.282;10.560;2022-08-19T10:22:18;22.10;99.90
26947;DHT22;14501;52.282;10.560;2022-08-19T10:24:45;22.00;99.90
26947;DHT22;14501;52.282;10.560;2022-08-19T10:27:11;22.00;99.90
26947;DHT22;14501;52.282;10.560;2022-08-19T10:29:38;22.00;99.90
26947;DHT22;14501;52.282;10.560;2022-08-19T10:32:07;22.20;99.90
26947;DHT22;14501;52.282;10.560;2022-08-19T10:34:34;22.30;99.90
26947;DHT22;14501;52.282;10.560;2022-08-19T10:37:02;22.50;99.90
26947;DHT22;14501;52.282;10.560;2022-08-19T10:39:33;22.70;99.90
26947;DHT22;14501;52.282;10.560;2022-08-19T10:41:59;22.70;99.90
26947;DHT22;14501;52.282;10.560;2022-08-19T10:44:29;22.80;99.90
26947;DHT22;14501;52.282;10.560;2022-08-19T10:46:55;22.70;99.90
26947;DHT22;14501;52.282;10.560;2022-08-19T10:49:21;22.80;99.90
26947;DHT22;14501;52.282;10.560;2022-08-19T10:51:49;22.90;99.90
26947;DHT22;14501;52.282;10.560;2022-08-19T10:54:33;23.00;99.90
26947;DHT22;14501;52.282;10.560;2022-08-19T10:57:18;22.90;99.90
26947;DHT22;14501;52.282;10.560;2022-08-19T10:59:43;23.00;99.90
26947;DHT22;14501;52.282;10.560;2022-08-19T11:02:11;23.20;99.90
26947;DHT22;14501;52.282;10.560;2022-08-19T11:04:38;23.50;99.90
26947;DHT22;14501;52.282;10.560;2022-08-19T11:07:05;23.90;99.90
26947;DHT22;14501;52.282;10.560;2022-08-19T11:09:35;24.30;99.90
26947;DHT22;14501;52.282;10.560;2022-08-19T11:12:02;24.50;99.90
26947;DHT22;14501;52.282;10.560;2022-08-19T11:14:28;24.80;99.90
26947;DHT22;14501;52.282;10.560;2022-08-19T11:16:56;24.80;99.90
26947;DHT22;14501;52.282;10.560;2022-08-19T11:19:22;24.90;99.90
26947;DHT22;14501;52.282;10.560;2022-08-19T11:21:50;24.80;99.90
26947;DHT22;14501;52.282;10.560;2022-08-19T11:24:18;24.70;99.90
26947;DHT22;14501;52.282;10.560;2022-08-19T11:26:48;24.70;99.90
26947;DHT22;14501;52.282;10.560;2022-08-19T11:29:15;24.70;99.90
26947;DHT22;14501;52.282;10.560;2022-08-19T11:31:44;24.70;99.90
26947;DHT22;14501;52.282;10.560;2022-08-19T11:34:13;24.70;99.90
26947;DHT22;14501;52.282;10.560;2022-08-19T11:36:42;24.90;99.90
26947;DHT22;14501;52.282;10.560;2022-08-19T11:39:11;24.90;99.90
26947;DHT22;14501;52.282;10.560;2022-08-19T11:41:38;25.10;99.90
26947;DHT22;14501;52.282;10.560;2022-08-19T11:44:05;25.00;99.90
26947;DHT22;14501;52.282;10.560;2022-08-19T11:46:32;25.10;99.90
26947;DHT22;14501;52.282;10.560;2022-08-19T11:48:58;25.20;99.90
26947;DHT22;14501;52.282;10.560;2022-08-19T11:51:27;25.10;99.90
26947;DHT22;14501;52.282;10.560;2022-08-19T11:53:54;25.20;99.90
26947;DHT22;14501;52.282;10.560;2022-08-19T11:56:21;25.40;99.90
26947;DHT22;14501;52.282;10.560;2022-08-19T11:58:47;25.50;99.90
26947;DHT22;14501;52.282;10.560;2022-08-19T12:01:15;25.20;99.90
26947;DHT22;14501;52.282;10.560;2022-08-19T12:03:42;25.60;99.90
26947;DHT22;14501;52.282;10.560;2022-08-19T12:06:10;26.10;99.90
26947;DHT22;14501;52.282;10.560;2022-08-19T12:08:39;26.30;99.90
26947;DHT22;14501;52.282;10.560;2022-08-19T12:11:05;26.80;99.90
26947;DHT22;14501;52.282;10.560;2022-08-19T12:13:34;27.20;99.90
26947;DHT22;14501;52.282;10.560;2022-08-19T12:16:00;27.60;99.90
26947;DHT22;14501;52.282;10.560;2022-08-19T12:18:27;28.00;99.90
26947;DHT22;14501;52.282;10.560;2022-08-19T12:20:53;28.00;99.90
26947;DHT22;14501;52.282;10.560;2022-08-19T12:23:22;27.70;99.90
26947;DHT22;14501;52.282;10.560;2022-08-19T12:25:49;27.50;99.90
26947;DHT22;14501;52.282;10.560;2022-08-19T12:28:19;27.60;99.90
26947;DHT22;14501;52.282;10.560;2022-08-19T12:30:45;27.50;99.90
26947;DHT22;14501;52.282;10.560;2022-08-19T12:33:10;27.60;99.90
26947;DHT22;14501;52.282;10.560;2022-08-19T12:35:43;27.90;99.90
26947;DHT22;14501;52.282;10.560;2022-08-19T12:38:11;27.20;99.90
26947;DHT22;14501;52.282;10.560;2022-08-19T12:40:37;27.50;99.90
26947;DHT22;14501;52.282;10.560;2022-08-19T12:43:03;27.50;99.90
26947;DHT22;14501;52.282;10.560;2022-08-19T12:45:29;27.50;99.90
26947;DHT22;14501;52.282;10.560;2022-08-19T12:47:55;27.30;99.90
26947;DHT22;14501;52.282;10.560;2022-08-19T12:50:21;26.90;99.90
26947;DHT22;14501;52.282;10.560;2022-08-19T12:52:47;26.70;99.90
26947;DHT22;14501;52.282;10.560;2022-08-19T12:55:13;26.70;99.90
26947;DHT22;14501;52.282;10.560;2022-08-19T12:57:39;26.90;99.90
26947;DHT22;14501;52.282;10.560;2022-08-19T13:00:09;26.90;99.90
26947;DHT22;14501;52.282;10.560;2022-08-19T13:02:38;27.30;99.90
26947;DHT22;14501;52.282;10.560;2022-08-19T13:05:04;27.40;99.90
26947;DHT22;14501;52.282;10.560;2022-08-19T13:07:32;27.60;99.90
26947;DHT22;14501;52.282;10.560;2022-08-19T13:09:57;27.50;99.90
26947;DHT22;14501;52.282;10.560;2022-08-19T13:12:23;27.80;99.90
26947;DHT22;14501;52.282;10.560;2022-08-19T13:14:53;27.70;99.90
26947;DHT22;14501;52.282;10.560;2022-08-19T13:17:19;27.90;99.90
26947;DHT22;14501;52.282;10.560;2022-08-19T13:19:45;27.90;99.90
26947;DHT22;14501;52.282;10.560;2022-08-19T13:22:11;28.20;99.90
26947;DHT22;14501;52.282;10.560;2022-08-19T13:24:37;28.30;99.90
26947;DHT22;14501;52.282;10.560;2022-08-19T13:27:04;28.70;99.90
26947;DHT22;14501;52.282;10.560;2022-08-19T13:29:29;29.00;99.90
26947;DHT22;14501;52.282;10.560;2022-08-19T13:32:13;28.80;99.90
26947;DHT22;14501;52.282;10.560;2022-08-19T13:34:57;28.50;99.90
26947;DHT22;14501;52.282;10.560;2022-08-19T13:37:23;28.30;99.90
26947;DHT22;14501;52.282;10.560;2022-08-19T13:40:14;27.80;99.90
26947;DHT22;14501;52.282;10.560;2022-08-19T13:42:43;27.60;99.90
26947;DHT22;14501;52.282;10.560;2022-08-19T13:45:09;27.60;99.90
26947;DHT22;14501;52.282;10.560;2022-08-19T13:47:36;27.70;99.90
26947;DHT22;14501;52.282;10.560;2022-08-19T13:50:12;27.60;99.90
26947;DHT22;14501;52.282;10.560;2022-08-19T13:52:39;27.60;99.90
26947;DHT22;14501;52.282;10.560;2022-08-19T13:55:05;27.60;99.90
26947;DHT22;14501;52.282;10.560;2022-08-19T13:57:31;27.80;99.90
26947;DHT22;14501;52.282;10.560;2022-08-19T13:59:58;27.80;99.90
26947;DHT22;14501;52.282;10.560;2022-08-19T14:02:24;27.40;99.90
26947;DHT22;14501;52.282;10.560;2022-08-19T14:04:50;27.20;99.90
26947;DHT22;14501;52.282;10.560;2022-08-19T14:07:16;27.20;99.90
26947;DHT22;14501;52.282;10.560;2022-08-19T14:09:41;27.10;99.90
26947;DHT22;14501;52.282;10.560;2022-08-19T14:12:07;27.10;99.90
26947;DHT22;14501;52.282;10.560;2022-08-19T14:14:38;27.20;99.90
26947;DHT22;14501;52.282;10.560;2022-08-19T14:17:07;27.30;99.90
26947;DHT22;14501;52.282;10.560;2022-08-19T14:19:34;27.40;99.90
26947;DHT22;14501;52.282;10.560;2022-08-19T14:22:00;27.50;99.90
26947;DHT22;14501;52.282;10.560;2022-08-19T14:24:27;27.50;99.90
26947;DHT22;14501;52.282;10.560;2022-08-19T14:26:52;27.40;99.90
26947;DHT22;14501;52.282;10.560;2022-08-19T14:29:18;27.20;99.90
26947;DHT22;14501;52.282;10.560;2022-08-19T14:31:44;27.10;99.90
26947;DHT22;14501;52.282;10.560;2022-08-19T14:34:09;26.80;99.90
26947;DHT22;14501;52.282;10.560;2022-08-19T14:36:36;26.70;99.90
26947;DHT22;14501;52.282;10.560;2022-08-19T14:39:03;26.60;99.90
26947;DHT22;14501;52.282;10.560;2022-08-19T14:41:28;26.70;99.90
26947;DHT22;14501;52.282;10.560;2022-08-19T14:43:56;26.80;99.90
26947;DHT22;14501;52.282;10.560;2022-08-19T14:46:26;26.80;99.90
26947;DHT22;14501;52.282;10.560;2022-08-19T14:48:53;27.00;99.90
26947;DHT22;14501;52.282;10.560;2022-08-19T14:51:21;27.00;99.90
26947;DHT22;14501;52.282;10.560;2022-08-19T14:53:47;27.40;99.90
26947;DHT22;14501;52.282;10.560;2022-08-19T14:56:21;27.50;99.90
26947;DHT22;14501;52.282;10.560;2022-08-19T14:58:48;27.70;99.90
26947;DHT22;14501;52.282;10.560;2022-08-19T15:01:17;27.50;99.90
26947;DHT22;14501;52.282;10.560;2022-08-19T15:03:45;27.50;99.90
26947;DHT22;14501;52.282;10.560;2022-08-19T15:06:11;27.60;99.90
26947;DHT22;14501;52.282;10.560;2022-08-19T15:08:39;27.80;99.90
26947;DHT22;14501;52.282;10.560;2022-08-19T15:11:16;27.70;99.90
26947;DHT22;14501;52.282;10.560;2022-08-19T15:13:43;27.40;99.90
26947;DHT22;14501;52.282;10.560;2022-08-19T15:16:10;27.30;99.90
26947;DHT22;14501;52.282;10.560;2022-08-19T15:18:36;27.40;99.90
26947;DHT22;14501;52.282;10.560;2022-08-19T15:21:03;27.40;99.90
26947;DHT22;14501;52.282;10.560;2022-08-19T15:23:29;27.50;99.90
26947;DHT22;14501;52.282;10.560;2022-08-19T15:25:55;27.50;99.90
26947;DHT22;14501;52.282;10.560;2022-08-19T15:28:22;27.50;99.90